createdAt,value
2018-09-21T00:02:00.414Z,16.40
2018-09-21T00:04:27.996Z,16.30
2018-09-21T00:06:55.580Z,16.30
2018-09-21T00:09:23.168Z,16.30
2018-09-21T00:11:50.688Z,16.30
2018-09-21T00:14:18.228Z,16.30
2018-09-21T00:16:45.853Z,16.30
2018-09-21T00:19:13.561Z,16.30
2018-09-21T00:21:41.067Z,16.30
2018-09-21T00:24:08.766Z,16.20
2018-09-21T00:26:36.494Z,16.10
2018-09-21T00:29:04.120Z,16.10
2018-09-21T00:31:31.799Z,16.10
2018-09-21T00:33:59.325Z,16.10
2018-09-21T00:36:27.015Z,16.00
2018-09-21T00:38:54.984Z,15.90
2018-09-21T00:41:22.648Z,15.90
2018-09-21T00:43:50.162Z,15.90
2018-09-21T00:46:17.740Z,15.80
2018-09-21T00:48:45.411Z,15.80
2018-09-21T00:51:13.086Z,15.80
2018-09-21T00:53:40.749Z,15.80
2018-09-21T00:56:08.404Z,15.70
2018-09-21T00:58:36.158Z,15.70
2018-09-21T01:01:03.831Z,15.60
2018-09-21T01:03:31.368Z,15.70
2018-09-21T01:05:59.131Z,15.60
2018-09-21T01:08:26.855Z,15.60
2018-09-21T01:10:54.389Z,15.60
2018-09-21T01:13:22.032Z,15.50
2018-09-21T01:15:49.794Z,15.50
2018-09-21T01:18:17.387Z,15.50
2018-09-21T01:20:44.951Z,15.40
2018-09-21T01:23:12.778Z,15.40
2018-09-21T01:25:40.452Z,15.40
2018-09-21T01:28:08.289Z,15.30
2018-09-21T01:30:35.945Z,15.30
2018-09-21T01:33:03.513Z,15.30
2018-09-21T01:35:31.260Z,15.30
2018-09-21T01:37:58.799Z,15.20
2018-09-21T01:40:26.361Z,15.20
2018-09-21T01:42:53.891Z,15.20
2018-09-21T01:45:21.670Z,15.20
2018-09-21T01:47:49.227Z,15.20
2018-09-21T01:50:16.811Z,15.20
2018-09-21T01:52:44.355Z,15.20
2018-09-21T01:55:11.960Z,15.20
2018-09-21T01:57:39.501Z,15.20
2018-09-21T02:00:07.125Z,15.20
2018-09-21T02:02:34.778Z,15.20
2018-09-21T02:05:02.684Z,15.10
2018-09-21T02:07:30.211Z,15.10
2018-09-21T02:09:57.904Z,15.10
2018-09-21T02:12:25.463Z,15.10
2018-09-21T02:14:53.189Z,15.10
2018-09-21T02:17:20.824Z,15.10
2018-09-21T02:19:48.638Z,15.10
2018-09-21T02:22:16.280Z,15.00
2018-09-21T02:24:44.113Z,15.00
2018-09-21T02:27:11.812Z,15.00
2018-09-21T02:29:39.452Z,15.00
2018-09-21T02:32:06.984Z,14.90
2018-09-21T02:34:34.789Z,14.90
2018-09-21T02:37:02.466Z,14.90
2018-09-21T02:39:30.097Z,14.90
2018-09-21T02:41:57.690Z,14.90
2018-09-21T02:44:25.234Z,14.80
2018-09-21T02:46:53.116Z,14.80
2018-09-21T02:49:20.706Z,14.80
2018-09-21T02:51:48.357Z,14.80
2018-09-21T02:54:16.017Z,14.80
2018-09-21T02:56:43.677Z,14.70
2018-09-21T02:59:11.526Z,14.70
2018-09-21T03:01:40.395Z,14.70
2018-09-21T03:04:09.330Z,14.70
2018-09-21T03:06:36.932Z,14.60
2018-09-21T03:09:07.394Z,14.60
2018-09-21T03:11:35.147Z,14.60
2018-09-21T03:14:02.849Z,14.60
2018-09-21T03:16:30.593Z,14.50
2018-09-21T03:18:58.275Z,14.50
2018-09-21T03:21:25.887Z,14.50
2018-09-21T03:23:53.678Z,14.50
2018-09-21T03:26:21.369Z,14.40
2018-09-21T03:28:49.030Z,14.40
2018-09-21T03:31:16.702Z,14.40
2018-09-21T03:33:44.313Z,14.40
2018-09-21T03:36:11.983Z,14.30
2018-09-21T03:38:39.924Z,14.30
2018-09-21T03:41:07.712Z,14.30
2018-09-21T03:43:35.348Z,14.30
2018-09-21T03:46:02.959Z,14.20
2018-09-21T03:48:30.624Z,14.20
2018-09-21T03:50:58.694Z,14.20
2018-09-21T03:53:26.268Z,14.20
2018-09-21T03:55:54.037Z,14.10
2018-09-21T03:58:21.650Z,14.10
2018-09-21T04:00:49.334Z,14.10
2018-09-21T04:03:16.930Z,14.00
2018-09-21T04:05:44.618Z,14.00
2018-09-21T04:08:12.344Z,14.00
2018-09-21T04:10:39.872Z,14.00
2018-09-21T04:13:07.558Z,13.90
2018-09-21T04:15:35.164Z,13.90
2018-09-21T04:18:02.865Z,13.90
2018-09-21T04:20:30.600Z,13.90
2018-09-21T04:23:02.061Z,13.90
2018-09-21T04:25:30.444Z,13.80
2018-09-21T04:27:58.182Z,13.80
2018-09-21T04:30:26.589Z,13.80
2018-09-21T04:32:54.351Z,13.70
2018-09-21T04:35:22.102Z,13.70
2018-09-21T04:37:49.976Z,13.70
2018-09-21T04:40:17.600Z,13.70
2018-09-21T04:42:45.401Z,13.60
2018-09-21T04:45:13.292Z,13.60
2018-09-21T04:47:41.653Z,13.60
2018-09-21T04:50:09.253Z,13.50
2018-09-21T04:52:37.288Z,13.50
2018-09-21T04:55:05.690Z,13.50
2018-09-21T04:57:33.440Z,13.50
2018-09-21T05:00:00.984Z,13.50
2018-09-21T05:02:28.653Z,13.50
2018-09-21T05:04:56.204Z,13.50
2018-09-21T05:07:24.099Z,13.50
2018-09-21T05:09:51.718Z,13.50
2018-09-21T05:12:19.300Z,13.50
2018-09-21T05:14:46.829Z,13.50
2018-09-21T05:17:14.585Z,13.60
2018-09-21T05:19:42.152Z,13.60
2018-09-21T05:22:09.814Z,13.60
2018-09-21T05:24:37.359Z,13.60
2018-09-21T05:27:05.133Z,13.70
2018-09-21T05:29:32.672Z,13.80
2018-09-21T05:32:00.178Z,13.80
2018-09-21T05:34:27.804Z,13.90
2018-09-21T05:36:55.360Z,14.00
2018-09-21T05:39:23.157Z,14.00
2018-09-21T05:41:50.689Z,14.10
2018-09-21T05:44:18.449Z,14.20
2018-09-21T05:46:46.293Z,14.30
2018-09-21T05:49:13.931Z,14.50
2018-09-21T05:51:41.804Z,14.80
2018-09-21T05:54:09.687Z,15.10
2018-09-21T05:56:37.369Z,15.50
2018-09-21T05:59:04.978Z,16.10
2018-09-21T06:01:32.563Z,16.70
2018-09-21T06:04:00.198Z,17.30
2018-09-21T06:06:28.102Z,18.00
2018-09-21T06:08:55.636Z,18.60
2018-09-21T06:11:23.191Z,19.10
2018-09-21T06:13:50.951Z,19.60
2018-09-21T06:16:18.544Z,20.10
2018-09-21T06:18:46.305Z,20.60
2018-09-21T06:21:14.160Z,21.20
2018-09-21T06:23:41.732Z,22.00
2018-09-21T06:26:09.493Z,22.90
2018-09-21T06:28:37.042Z,23.80
2018-09-21T06:31:04.817Z,24.70
2018-09-21T06:33:32.480Z,25.40
2018-09-21T06:36:00.130Z,25.90
2018-09-21T06:38:27.656Z,26.50
2018-09-21T06:40:55.390Z,26.90
2018-09-21T06:43:22.929Z,27.60
2018-09-21T06:45:50.665Z,28.40
2018-09-21T06:48:18.556Z,29.20
2018-09-21T06:50:46.571Z,30.10
2018-09-21T06:53:14.185Z,30.90
2018-09-21T06:55:41.930Z,31.60
2018-09-21T06:58:09.629Z,32.40
2018-09-21T07:00:37.241Z,33.30
2018-09-21T07:03:04.963Z,34.10
2018-09-21T07:05:33.189Z,34.70
2018-09-21T07:08:00.815Z,35.20
2018-09-21T07:10:28.557Z,35.60
2018-09-21T07:12:56.141Z,36.10
2018-09-21T07:15:23.758Z,36.90
2018-09-21T07:17:51.448Z,37.70
2018-09-21T07:20:19.119Z,38.50
2018-09-21T07:22:46.650Z,38.90
2018-09-21T07:25:14.267Z,38.80
2018-09-21T07:27:41.988Z,38.40
2018-09-21T07:30:09.742Z,37.80
2018-09-21T07:32:37.564Z,36.60
2018-09-21T07:35:05.513Z,35.70
2018-09-21T07:37:33.439Z,35.10
2018-09-21T07:40:01.377Z,35.50
2018-09-21T07:42:29.156Z,36.50
2018-09-21T07:44:56.822Z,37.60
2018-09-21T07:47:24.372Z,39.00
2018-09-21T07:49:51.941Z,40.40
2018-09-21T07:52:19.601Z,41.10
2018-09-21T07:54:47.140Z,41.20
2018-09-21T07:57:14.990Z,40.30
2018-09-21T07:59:42.655Z,38.70
2018-09-21T08:02:10.453Z,37.20
2018-09-21T08:04:38.114Z,35.90
2018-09-21T08:07:05.849Z,34.40
2018-09-21T08:09:33.649Z,33.60
2018-09-21T08:12:01.673Z,33.00
2018-09-21T08:14:29.259Z,32.50
2018-09-21T08:16:56.823Z,32.20
2018-09-21T08:19:24.445Z,31.90
2018-09-21T08:21:52.283Z,31.60
2018-09-21T08:24:20.046Z,31.00
2018-09-21T08:26:47.659Z,30.70
2018-09-21T08:29:15.230Z,30.30
2018-09-21T08:31:42.935Z,29.60
2018-09-21T08:34:10.554Z,29.20
2018-09-21T08:36:38.444Z,29.00
2018-09-21T08:39:09.085Z,28.90
2018-09-21T08:41:38.062Z,28.80
2018-09-21T08:44:05.862Z,28.90
2018-09-21T08:46:33.809Z,29.00
2018-09-21T08:49:01.641Z,29.10
2018-09-21T08:51:29.225Z,29.40
2018-09-21T08:53:56.904Z,29.60
2018-09-21T08:56:24.570Z,30.00
2018-09-21T08:58:52.333Z,31.00
2018-09-21T09:01:20.146Z,31.50
2018-09-21T09:03:47.797Z,31.80
2018-09-21T09:06:15.354Z,31.90
2018-09-21T09:08:42.936Z,32.10
2018-09-21T09:11:10.618Z,32.80
2018-09-21T09:13:38.184Z,34.20
2018-09-21T09:16:05.965Z,35.70
2018-09-21T09:18:33.634Z,36.80
2018-09-21T09:21:01.236Z,37.60
2018-09-21T09:23:28.785Z,37.70
2018-09-21T09:25:56.391Z,37.60
2018-09-21T09:28:24.254Z,37.80
2018-09-21T09:30:51.875Z,37.60
2018-09-21T09:33:19.562Z,37.00
2018-09-21T09:35:47.170Z,36.70
2018-09-21T09:38:14.927Z,35.90
2018-09-21T09:40:42.579Z,36.10
2018-09-21T09:43:10.479Z,35.90
2018-09-21T09:45:38.213Z,35.00
2018-09-21T09:48:06.013Z,34.60
2018-09-21T09:50:33.836Z,34.40
2018-09-21T09:53:01.506Z,34.40
2018-09-21T09:55:29.510Z,34.60
2018-09-21T09:57:57.036Z,35.30
2018-09-21T10:00:30.346Z,36.10
2018-09-21T10:02:57.965Z,37.00
2018-09-21T10:05:25.642Z,37.50
2018-09-21T10:07:53.308Z,38.80
2018-09-21T10:10:21.177Z,39.50
2018-09-21T10:12:48.765Z,38.90
2018-09-21T10:15:16.406Z,38.30
2018-09-21T10:17:43.981Z,37.20
2018-09-21T10:20:11.757Z,35.60
2018-09-21T10:22:39.591Z,34.50
2018-09-21T10:25:07.293Z,33.70
2018-09-21T10:27:35.286Z,33.10
2018-09-21T10:30:02.927Z,32.50
2018-09-21T10:32:30.551Z,32.20
2018-09-21T10:34:58.251Z,31.70
2018-09-21T10:37:26.262Z,31.40
2018-09-21T10:39:54.734Z,31.10
2018-09-21T10:42:22.657Z,30.90
2018-09-21T10:44:50.390Z,30.40
2018-09-21T10:47:18.032Z,30.10
2018-09-21T10:49:45.720Z,30.00
2018-09-21T10:52:13.331Z,29.80
2018-09-21T10:54:40.903Z,29.70
2018-09-21T10:57:09.436Z,29.70
2018-09-21T10:59:37.061Z,29.70
2018-09-21T11:02:04.919Z,29.70
2018-09-21T11:04:32.817Z,29.60
2018-09-21T11:07:00.488Z,30.40
2018-09-21T11:09:28.164Z,32.20
2018-09-21T11:11:55.818Z,34.00
2018-09-21T11:14:23.481Z,34.40
2018-09-21T11:16:51.153Z,34.20
2018-09-21T11:19:18.736Z,34.10
2018-09-21T11:21:46.600Z,33.70
2018-09-21T11:24:14.189Z,33.30
2018-09-21T11:26:41.883Z,32.80
2018-09-21T11:29:09.431Z,32.00
2018-09-21T11:31:37.330Z,31.30
2018-09-21T11:34:05.031Z,30.60
2018-09-21T11:36:32.856Z,30.20
2018-09-21T11:39:00.615Z,29.90
2018-09-21T11:41:28.257Z,29.60
2018-09-21T11:43:56.221Z,29.40
2018-09-21T11:46:23.806Z,29.20
2018-09-21T11:48:51.486Z,29.10
2018-09-21T11:51:19.352Z,29.00
2018-09-21T11:53:47.525Z,28.90
2018-09-21T11:56:15.171Z,28.80
2018-09-21T11:58:42.805Z,28.80
2018-09-21T12:01:10.465Z,28.60
2018-09-21T12:03:38.057Z,28.50
2018-09-21T12:06:06.729Z,28.40
2018-09-21T12:08:36.248Z,28.30
2018-09-21T12:11:04.032Z,28.20
2018-09-21T12:13:32.001Z,28.10
2018-09-21T12:15:59.668Z,28.00
2018-09-21T12:18:27.414Z,28.00
2018-09-21T12:20:55.269Z,28.10
2018-09-21T12:23:22.827Z,28.10
2018-09-21T12:25:50.413Z,28.10
2018-09-21T12:28:18.127Z,28.10
2018-09-21T12:30:45.931Z,28.00
2018-09-21T12:33:13.696Z,27.90
2018-09-21T12:35:41.315Z,27.90
2018-09-21T12:38:09.230Z,27.90
2018-09-21T12:40:36.945Z,27.90
2018-09-21T12:43:05.177Z,27.80
2018-09-21T12:45:32.771Z,27.80
2018-09-21T12:48:00.320Z,27.80
2018-09-21T12:50:28.098Z,27.70
2018-09-21T12:52:55.751Z,27.60
2018-09-21T12:55:23.478Z,27.70
2018-09-21T12:57:52.294Z,27.80
2018-09-21T13:00:19.893Z,27.80
2018-09-21T13:02:47.647Z,27.80
2018-09-21T13:05:15.565Z,27.90
2018-09-21T13:07:43.147Z,27.90
2018-09-21T13:10:10.880Z,27.90
2018-09-21T13:12:38.529Z,27.80
2018-09-21T13:15:06.314Z,27.60
2018-09-21T13:17:33.976Z,27.40
2018-09-21T13:20:01.627Z,27.30
2018-09-21T13:22:29.405Z,27.10
2018-09-21T13:24:57.041Z,26.90
2018-09-21T13:27:24.715Z,26.70
2018-09-21T13:29:52.278Z,26.60
2018-09-21T13:32:20.091Z,26.60
2018-09-21T13:34:47.650Z,26.60
2018-09-21T13:37:15.241Z,26.50
2018-09-21T13:39:42.804Z,26.60
2018-09-21T13:42:10.521Z,26.60
2018-09-21T13:44:38.240Z,26.60
2018-09-21T13:47:06.096Z,26.60
2018-09-21T13:49:33.779Z,26.60
2018-09-21T13:52:01.385Z,26.50
2018-09-21T13:54:29.259Z,26.40
2018-09-21T13:56:56.954Z,26.30
2018-09-21T13:59:24.787Z,26.30
2018-09-21T14:01:52.274Z,26.20
2018-09-21T14:04:19.836Z,26.20
2018-09-21T14:06:47.493Z,26.10
2018-09-21T14:09:15.072Z,26.00
2018-09-21T14:11:42.652Z,26.00
2018-09-21T14:14:10.515Z,25.90
2018-09-21T14:16:38.261Z,25.90
2018-09-21T14:19:05.796Z,25.90
2018-09-21T14:21:33.414Z,25.90
2018-09-21T14:24:01.275Z,26.00
2018-09-21T14:26:28.886Z,26.00
2018-09-21T14:28:56.765Z,26.00
2018-09-21T14:31:24.564Z,26.00
2018-09-21T14:33:52.089Z,26.00
2018-09-21T14:36:19.744Z,26.00
2018-09-21T14:38:47.511Z,26.00
2018-09-21T14:41:15.310Z,26.00
2018-09-21T14:43:42.880Z,25.90
2018-09-21T14:46:12.138Z,25.80
2018-09-21T14:48:39.820Z,25.80
2018-09-21T14:51:07.485Z,25.80
2018-09-21T14:53:35.125Z,25.70
2018-09-21T14:56:02.829Z,25.80
2018-09-21T14:58:30.477Z,25.70
2018-09-21T15:00:58.349Z,25.70
2018-09-21T15:03:26.339Z,25.50
2018-09-21T15:05:53.983Z,25.50
2018-09-21T15:08:21.624Z,25.40
2018-09-21T15:10:49.313Z,25.30
2018-09-21T15:13:17.691Z,25.30
2018-09-21T15:15:45.410Z,25.20
2018-09-21T15:18:13.018Z,25.10
2018-09-21T15:20:40.744Z,25.10
2018-09-21T15:23:08.424Z,25.00
2018-09-21T15:25:36.008Z,25.00
2018-09-21T15:28:03.754Z,25.00
2018-09-21T15:30:31.305Z,25.00
2018-09-21T15:32:59.068Z,24.90
2018-09-21T15:35:26.795Z,24.90
2018-09-21T15:37:54.457Z,24.80
2018-09-21T15:40:22.179Z,24.70
2018-09-21T15:42:49.821Z,24.60
2018-09-21T15:45:17.488Z,24.20
2018-09-21T15:47:45.647Z,23.70
2018-09-21T15:50:13.312Z,23.30
2018-09-21T15:52:41.154Z,22.80
2018-09-21T15:55:08.812Z,22.40
2018-09-21T15:57:36.601Z,22.10
2018-09-21T16:00:05.368Z,21.50
2018-09-21T16:02:33.161Z,20.80
2018-09-21T16:05:00.828Z,20.30
2018-09-21T16:07:28.525Z,19.80
2018-09-21T16:09:56.113Z,19.30
2018-09-21T16:12:23.873Z,18.90
2018-09-21T16:14:51.464Z,18.60
2018-09-21T16:17:19.406Z,18.30
2018-09-21T16:19:47.106Z,18.00
2018-09-21T16:22:14.939Z,17.80
2018-09-21T16:24:42.470Z,17.60
2018-09-21T16:27:10.101Z,17.40
2018-09-21T16:29:37.746Z,17.30
2018-09-21T16:32:05.416Z,17.10
2018-09-21T16:34:33.076Z,17.00
2018-09-21T16:37:00.728Z,16.90
2018-09-21T16:39:28.535Z,16.80
2018-09-21T16:41:56.146Z,16.70
2018-09-21T16:44:24.109Z,16.60
2018-09-21T16:46:51.777Z,16.50
2018-09-21T16:49:19.396Z,16.40
2018-09-21T16:51:47.232Z,16.20
2018-09-21T16:54:15.026Z,16.00
2018-09-21T16:56:42.636Z,15.90
2018-09-21T16:59:10.488Z,15.80
2018-09-21T17:01:38.182Z,15.80
2018-09-21T17:04:05.948Z,15.70
2018-09-21T17:06:33.510Z,15.60
2018-09-21T17:09:01.100Z,15.50
2018-09-21T17:11:28.795Z,15.40
2018-09-21T17:13:56.988Z,15.30
2018-09-21T17:16:24.766Z,15.20
2018-09-21T17:18:52.616Z,15.10
2018-09-21T17:21:20.278Z,15.10
2018-09-21T17:23:47.858Z,15.00
2018-09-21T17:26:15.429Z,15.00
2018-09-21T17:28:43.252Z,14.90
2018-09-21T17:31:10.938Z,14.80
2018-09-21T17:33:38.525Z,14.80
2018-09-21T17:36:06.698Z,14.70
2018-09-21T17:38:34.380Z,14.70
2018-09-21T17:41:02.124Z,14.70
2018-09-21T17:43:30.530Z,14.70
2018-09-21T17:45:58.301Z,14.60
2018-09-21T17:48:25.910Z,14.60
2018-09-21T17:50:53.751Z,14.60
2018-09-21T17:53:21.567Z,14.60
2018-09-21T17:55:49.623Z,14.60
2018-09-21T17:58:17.394Z,14.50
2018-09-21T18:00:45.108Z,14.50
2018-09-21T18:03:12.847Z,14.50
2018-09-21T18:05:40.446Z,14.50
2018-09-21T18:08:08.057Z,14.40
2018-09-21T18:10:36.153Z,14.40
2018-09-21T18:13:03.804Z,14.30
2018-09-21T18:15:31.396Z,14.30
2018-09-21T18:17:59.202Z,14.30
2018-09-21T18:20:26.877Z,14.20
2018-09-21T18:22:54.759Z,14.20
2018-09-21T18:25:22.557Z,14.10
2018-09-21T18:27:50.390Z,14.00
2018-09-21T18:30:18.678Z,14.00
2018-09-21T18:32:46.306Z,13.90
2018-09-21T18:35:14.077Z,13.80
2018-09-21T18:37:41.708Z,13.80
2018-09-21T18:40:09.521Z,13.70
2018-09-21T18:42:37.630Z,13.70
2018-09-21T18:45:05.540Z,13.60
2018-09-21T18:47:33.516Z,13.60
2018-09-21T18:50:01.139Z,13.60
2018-09-21T18:52:29.166Z,13.50
2018-09-21T18:54:56.996Z,13.50
2018-09-21T18:57:24.744Z,13.50
2018-09-21T18:59:53.063Z,13.50
2018-09-21T19:02:20.648Z,13.40
2018-09-21T19:04:48.706Z,13.40
2018-09-21T19:07:31.716Z,13.40
2018-09-21T19:09:59.864Z,13.40
2018-09-21T19:12:27.963Z,13.30
2018-09-21T19:14:56.136Z,13.30
2018-09-21T19:17:24.759Z,13.30
2018-09-21T19:19:53.000Z,13.30
2018-09-21T19:22:22.661Z,13.30
2018-09-21T19:24:50.681Z,13.30
2018-09-21T19:27:18.852Z,13.30
2018-09-21T19:29:47.029Z,13.30
2018-09-21T19:32:15.251Z,13.30
2018-09-21T19:34:43.375Z,13.40
2018-09-21T19:37:11.353Z,13.40
2018-09-21T19:39:39.314Z,13.40
2018-09-21T19:42:07.471Z,13.40
2018-09-21T19:44:35.106Z,13.40
2018-09-21T19:47:02.764Z,13.40
2018-09-21T19:49:30.778Z,13.40
2018-09-21T19:51:58.456Z,13.40
2018-09-21T19:54:26.605Z,13.50
2018-09-21T19:56:54.142Z,13.40
2018-09-21T19:59:21.938Z,13.50
2018-09-21T20:01:49.650Z,13.50
2018-09-21T20:04:17.374Z,13.50
2018-09-21T20:06:45.541Z,13.50
2018-09-21T20:09:13.300Z,13.50
2018-09-21T20:11:41.337Z,13.50
2018-09-21T20:14:09.010Z,13.60
2018-09-21T20:16:36.918Z,13.60
2018-09-21T20:19:05.301Z,13.60
2018-09-21T20:21:33.614Z,13.60
2018-09-21T20:24:01.300Z,13.70
2018-09-21T20:26:28.930Z,13.70
2018-09-21T20:28:56.525Z,13.80
2018-09-21T20:31:29.711Z,13.80
2018-09-21T20:33:57.590Z,13.90
2018-09-21T20:36:25.306Z,13.90
2018-09-21T20:38:53.080Z,13.90
2018-09-21T20:41:20.647Z,14.00
2018-09-21T20:43:48.424Z,14.00
2018-09-21T20:46:16.000Z,14.00
2018-09-21T20:48:43.536Z,14.10
2018-09-21T20:51:11.215Z,14.10
2018-09-21T20:53:38.892Z,14.10
2018-09-21T20:56:06.618Z,14.10
2018-09-21T20:58:34.294Z,14.20
2018-09-21T21:01:01.943Z,14.20
2018-09-21T21:03:29.640Z,14.20
2018-09-21T21:05:57.296Z,14.20
2018-09-21T21:08:24.941Z,14.20
2018-09-21T21:10:52.764Z,14.20
2018-09-21T21:13:20.285Z,14.20
2018-09-21T21:15:47.794Z,14.30
2018-09-21T21:18:15.616Z,14.30
2018-09-21T21:20:43.147Z,14.30
2018-09-21T21:23:10.848Z,14.30
2018-09-21T21:25:38.677Z,14.30
2018-09-21T21:28:06.575Z,14.30
2018-09-21T21:30:34.244Z,14.30
2018-09-21T21:33:01.969Z,14.30
2018-09-21T21:35:29.563Z,14.30
2018-09-21T21:37:57.181Z,14.30
2018-09-21T21:40:24.879Z,14.30
2018-09-21T21:42:52.498Z,14.30
2018-09-21T21:45:20.170Z,14.30
2018-09-21T21:47:47.924Z,14.30
2018-09-21T21:50:15.520Z,14.30
2018-09-21T21:52:43.616Z,14.30
2018-09-21T21:55:11.164Z,14.30
2018-09-21T21:57:38.727Z,14.30
2018-09-21T22:00:08.260Z,14.30
2018-09-21T22:02:36.109Z,14.30
2018-09-21T22:05:04.182Z,14.30
2018-09-21T22:07:35.021Z,14.30
2018-09-21T22:10:04.612Z,14.30
2018-09-21T22:12:37.810Z,14.30
2018-09-21T22:15:10.441Z,14.30
2018-09-21T22:17:38.029Z,14.30
2018-09-21T22:20:05.752Z,14.30
2018-09-21T22:22:33.323Z,14.30
2018-09-21T22:25:00.910Z,14.30
2018-09-21T22:27:28.521Z,14.30
2018-09-21T22:29:56.080Z,14.30
2018-09-21T22:32:23.618Z,14.30
2018-09-21T22:34:51.272Z,14.30
2018-09-21T22:37:18.899Z,14.30
2018-09-21T22:39:46.497Z,14.20
2018-09-21T22:42:14.027Z,14.20
2018-09-21T22:44:41.614Z,14.20
2018-09-21T22:47:09.290Z,14.20
2018-09-21T22:49:36.875Z,14.20
2018-09-21T22:52:04.488Z,14.20
2018-09-21T22:54:32.041Z,14.20
2018-09-21T22:56:59.640Z,14.20
2018-09-21T22:59:27.305Z,14.20
2018-09-21T23:01:54.869Z,14.20
2018-09-21T23:04:22.441Z,14.10
2018-09-21T23:06:50.000Z,14.10
2018-09-21T23:09:17.549Z,14.10
2018-09-21T23:11:45.228Z,14.10
2018-09-21T23:14:12.790Z,14.10
2018-09-21T23:16:40.388Z,14.10
2018-09-21T23:19:09.164Z,14.10
2018-09-21T23:21:36.778Z,14.00
2018-09-21T23:24:04.337Z,14.00
2018-09-21T23:26:32.098Z,14.00
2018-09-21T23:28:59.672Z,14.00
2018-09-21T23:31:27.277Z,14.00
2018-09-21T23:33:54.860Z,14.00
2018-09-21T23:36:22.464Z,13.90
2018-09-21T23:38:50.507Z,13.90
2018-09-21T23:41:18.074Z,13.90
2018-09-21T23:43:45.712Z,13.90
2018-09-21T23:46:13.281Z,13.80
2018-09-21T23:48:40.882Z,13.80
2018-09-21T23:51:09.537Z,13.80
2018-09-21T23:53:37.393Z,13.70
2018-09-21T23:56:04.958Z,13.70
2018-09-21T23:58:32.523Z,13.60
